Time;durP1;ratioP1;P1;durP2;ratioP2;P2;SDS_P1;SDS_P2;PMS_P1;PMS_P2;Temp;Humidity;BMP_temperature;BMP_pressure;BME280_temperature;BME280_humidity;BME280_pressure;Samples;Min_cycle;Max_cycle;Signal;HPM_P1;HPM_P2
2023/01/13 00:01:14;;;;;;;286.83;146.00;;;1.80;99.90;;;;;;4971227;28;20049;-79
2023/01/13 00:03:42;;;;;;;280.67;143.73;;;1.80;99.90;;;;;;4986408;28;20039;-76
2023/01/13 00:06:13;;;;;;;279.48;147.70;;;1.80;99.90;;;;;;4975974;28;20034;-76
2023/01/13 00:08:49;;;;;;;321.90;167.40;;;1.70;99.90;;;;;;4973233;28;20054;-77
2023/01/13 00:11:17;;;;;;;340.77;185.98;;;1.60;99.90;;;;;;4982665;28;20066;-74
2023/01/13 00:13:46;;;;;;;331.58;177.13;;;1.60;99.90;;;;;;4988117;28;20045;-78
2023/01/13 00:16:15;;;;;;;312.73;167.45;;;1.60;99.90;;;;;;4982769;28;20035;-75
2023/01/13 00:18:43;;;;;;;309.75;165.68;;;1.60;99.90;;;;;;4991308;28;20229;-77
2023/01/13 00:21:13;;;;;;;334.20;177.35;;;1.50;99.90;;;;;;4982763;28;20050;-75
2023/01/13 00:23:41;;;;;;;299.83;157.90;;;1.50;99.90;;;;;;4976639;28;20057;-78
2023/01/13 00:26:10;;;;;;;302.08;154.10;;;1.60;99.90;;;;;;4971074;28;20063;-77
2023/01/13 00:28:39;;;;;;;319.65;167.52;;;1.50;99.90;;;;;;4971643;28;20046;-78
2023/01/13 00:31:07;;;;;;;334.45;170.77;;;1.50;99.90;;;;;;4954814;28;20046;-76
2023/01/13 00:33:36;;;;;;;322.65;166.43;;;1.50;99.90;;;;;;4973184;28;20047;-77
2023/01/13 00:36:06;;;;;;;420.92;186.45;;;1.50;99.90;;;;;;4983958;28;20045;-77
2023/01/13 00:38:35;;;;;;;358.80;164.15;;;1.60;99.90;;;;;;4975569;28;20134;-78
2023/01/13 00:41:04;;;;;;;349.88;165.73;;;1.50;99.90;;;;;;4971429;28;20428;-79
2023/01/13 00:43:32;;;;;;;365.65;180.45;;;1.50;99.90;;;;;;4972123;28;20046;-77
2023/01/13 00:46:01;;;;;;;325.85;167.60;;;1.50;99.90;;;;;;4971837;28;20070;-78
2023/01/13 00:48:31;;;;;;;359.52;178.65;;;1.50;99.90;;;;;;4971123;28;20069;-77
2023/01/13 00:51:00;;;;;;;318.20;165.10;;;1.50;99.90;;;;;;4971479;28;20487;-77
2023/01/13 00:53:28;;;;;;;299.52;162.45;;;1.40;99.90;;;;;;4958126;28;20082;-75
2023/01/13 00:56:00;;;;;;;308.95;163.32;;;1.40;99.90;;;;;;4975909;28;20102;-77
2023/01/13 00:58:28;;;;;;;310.85;161.68;;;1.40;99.90;;;;;;4972790;28;20093;-74
2023/01/13 01:00:55;;;;;;;318.77;160.85;;;1.40;99.90;;;;;;4971475;28;20513;-77
2023/01/13 01:03:24;;;;;;;265.73;145.32;;;1.50;99.90;;;;;;4971795;28;20046;-75
2023/01/13 01:05:51;;;;;;;272.77;147.60;;;1.40;99.90;;;;;;4971802;28;20038;-77
2023/01/13 01:08:19;;;;;;;259.63;146.25;;;1.40;99.90;;;;;;4971216;28;20055;-79
2023/01/13 01:10:46;;;;;;;231.75;122.38;;;1.40;99.90;;;;;;4970609;28;20116;-78
2023/01/13 01:13:16;;;;;;;199.90;116.28;;;1.40;99.90;;;;;;4969856;28;20047;-77
2023/01/13 01:15:43;;;;;;;199.43;114.43;;;1.30;99.90;;;;;;4953460;28;20051;-78
2023/01/13 01:18:11;;;;;;;199.48;110.53;;;1.40;99.90;;;;;;4970725;28;20444;-77
2023/01/13 01:20:40;;;;;;;177.88;102.70;;;1.40;99.90;;;;;;4970577;28;20047;-75
2023/01/13 01:23:07;;;;;;;177.57;102.13;;;1.40;99.90;;;;;;4971634;28;20039;-78
2023/01/13 01:25:34;;;;;;;174.18;100.10;;;1.30;99.90;;;;;;4970690;28;20053;-77
2023/01/13 01:28:02;;;;;;;157.85;92.63;;;1.20;99.90;;;;;;4970906;28;20035;-76
2023/01/13 01:30:29;;;;;;;159.77;95.75;;;1.10;99.90;;;;;;4970055;28;20084;-78
2023/01/13 01:32:57;;;;;;;223.20;128.77;;;1.10;99.90;;;;;;4970951;28;20039;-76
2023/01/13 01:35:24;;;;;;;211.13;119.05;;;1.10;99.90;;;;;;4970645;28;20076;-77
2023/01/13 01:37:53;;;;;;;182.57;101.93;;;1.10;99.90;;;;;;4970636;28;20043;-77
2023/01/13 01:40:20;;;;;;;170.70;98.30;;;1.10;99.90;;;;;;4969248;28;20043;-77
2023/01/13 01:45:33;;;;;;;173.07;107.20;;;1.10;99.90;;;;;;4976517;28;20062;-76
2023/01/13 01:48:03;;;;;;;195.57;114.25;;;1.00;99.90;;;;;;4988729;28;20074;-74
2023/01/13 01:50:32;;;;;;;179.60;105.65;;;0.90;99.90;;;;;;4974410;28;20046;-75
2023/01/13 01:53:07;;;;;;;177.80;106.30;;;0.90;99.90;;;;;;4953634;28;20070;-77
2023/01/13 01:55:36;;;;;;;191.48;111.07;;;0.90;99.90;;;;;;4989233;28;20141;-76
2023/01/13 01:58:10;;;;;;;189.77;112.15;;;0.90;99.90;;;;;;4970935;28;20105;-77
2023/01/13 02:00:38;;;;;;;164.77;97.95;;;0.90;99.90;;;;;;4973274;28;20045;-77
2023/01/13 02:03:09;;;;;;;170.55;101.50;;;0.90;99.90;;;;;;4973031;28;20045;-77
2023/01/13 02:05:37;;;;;;;168.05;98.55;;;0.80;99.90;;;;;;4972099;28;20057;-78
2023/01/13 02:08:09;;;;;;;176.40;105.78;;;0.80;99.90;;;;;;4970331;28;20153;-77
2023/01/13 02:10:38;;;;;;;179.18;104.88;;;0.60;99.90;;;;;;4971097;28;20074;-78
2023/01/13 02:13:06;;;;;;;166.48;101.05;;;0.50;99.90;;;;;;4971016;28;20138;-79
2023/01/13 02:15:41;;;;;;;156.15;95.10;;;0.50;99.90;;;;;;4970126;28;20047;-77
2023/01/13 02:18:46;;;;;;;165.00;93.95;;;0.50;99.90;;;;;;4970446;28;20053;-78
2023/01/13 02:21:36;;;;;;;140.32;81.85;;;0.40;99.90;;;;;;4969926;28;20047;-77
2023/01/13 02:24:55;;;;;;;145.75;84.82;;;0.50;99.90;;;;;;4951104;28;20054;-77
2023/01/13 02:27:52;;;;;;;142.60;85.22;;;0.50;99.90;;;;;;4979112;28;20078;-74
2023/01/13 02:33:39;;;;;;;164.10;95.75;;;0.50;99.90;;;;;;4929022;29;20123;-75
2023/01/13 02:36:16;;;;;;;146.70;89.75;;;0.50;99.90;;;;;;4916879;29;20048;-78
2023/01/13 02:38:52;;;;;;;154.57;94.13;;;0.50;99.90;;;;;;4899728;29;20457;-74
2023/01/13 02:44:14;;;;;;;170.90;101.60;;;0.50;99.90;;;;;;4927744;29;20048;-75
2023/01/13 02:46:50;;;;;;;138.68;81.97;;;0.50;99.90;;;;;;4937646;29;20124;-75
2023/01/13 02:49:26;;;;;;;136.73;85.22;;;0.50;99.90;;;;;;4907272;29;20070;-73
2023/01/13 02:51:59;;;;;;;146.20;86.32;;;0.50;99.90;;;;;;4937422;29;20032;-74
2023/01/13 02:54:29;;;;;;;144.60;86.82;;;0.50;99.90;;;;;;4927098;29;20087;-76
2023/01/13 02:57:00;;;;;;;140.80;82.38;;;0.40;99.90;;;;;;4915392;29;20058;-76
2023/01/13 02:59:30;;;;;;;137.13;82.97;;;0.30;99.90;;;;;;4914343;29;20056;-77
2023/01/13 03:02:02;;;;;;;128.70;76.72;;;0.30;99.90;;;;;;4913610;29;20089;-77
2023/01/13 03:04:51;;;;;;;127.03;78.00;;;0.30;99.90;;;;;;4951274;28;20083;-77
2023/01/13 03:08:03;;;;;;;122.90;76.13;;;0.20;99.90;;;;;;4982456;28;20070;-74
2023/01/13 03:10:46;;;;;;;125.97;76.38;;;0.20;99.90;;;;;;4955378;28;20062;-76
2023/01/13 03:13:31;;;;;;;104.30;63.47;;;0.30;99.90;;;;;;4990542;28;20043;-78
2023/01/13 03:16:09;;;;;;;107.00;64.85;;;0.30;99.90;;;;;;4975445;28;20034;-77
2023/01/13 03:18:45;;;;;;;128.00;73.40;;;0.30;99.90;;;;;;4973219;28;20051;-77
2023/01/13 03:21:20;;;;;;;137.15;76.55;;;0.30;99.90;;;;;;4978586;28;20142;-76
2023/01/13 03:23:51;;;;;;;121.82;71.60;;;0.30;99.90;;;;;;4978909;28;20043;-78
2023/01/13 03:26:28;;;;;;;126.30;69.18;;;0.40;99.90;;;;;;4980773;28;20055;-78
2023/01/13 03:29:04;;;;;;;112.07;67.63;;;0.20;99.90;;;;;;4985181;28;20050;-77
2023/01/13 03:31:37;;;;;;;127.80;74.80;;;0.20;99.90;;;;;;4973895;28;20049;-78
2023/01/13 03:34:10;;;;;;;140.68;84.32;;;0.20;99.90;;;;;;4990707;28;20038;-75
2023/01/13 03:36:41;;;;;;;140.57;84.55;;;0.30;99.90;;;;;;4974153;28;20126;-77
2023/01/13 03:39:15;;;;;;;133.07;80.70;;;0.30;99.90;;;;;;4989818;28;20049;-75
2023/01/13 03:41:51;;;;;;;126.57;71.13;;;0.20;99.90;;;;;;4996504;28;20058;-74
2023/01/13 03:44:21;;;;;;;132.02;71.95;;;0.20;99.90;;;;;;4992983;28;20043;-77
2023/01/13 03:46:58;;;;;;;131.65;72.13;;;0.20;99.90;;;;;;4993750;28;20110;-73
2023/01/13 03:49:33;;;;;;;128.60;72.43;;;0.20;99.90;;;;;;4989850;28;20058;-74
2023/01/13 03:52:05;;;;;;;129.95;77.60;;;0.30;99.90;;;;;;4995883;28;20059;-74
2023/01/13 03:54:39;;;;;;;129.38;76.13;;;0.30;99.90;;;;;;4979032;28;20046;-74
2023/01/13 03:57:10;;;;;;;133.52;76.80;;;0.30;99.90;;;;;;4974786;28;20047;-73
2023/01/13 03:59:41;;;;;;;127.60;70.65;;;0.30;99.90;;;;;;4977508;28;20047;-77
2023/01/13 04:02:19;;;;;;;128.73;73.43;;;0.30;50.10;;;;;;4988956;28;20042;-75
2023/01/13 04:04:52;;;;;;;146.27;77.70;;;0.20;1.00;;;;;;4975921;28;20061;-78
2023/01/13 04:07:31;;;;;;;150.82;81.93;;;0.20;1.00;;;;;;4972098;28;20491;-76
2023/01/13 04:10:01;;;;;;;143.40;76.40;;;0.10;1.00;;;;;;4972238;28;20042;-76
2023/01/13 04:12:59;;;;;;;138.55;76.10;;;0.10;1.00;;;;;;4973238;28;20073;-78
2023/01/13 04:15:21;;;;;;;143.70;80.90;;;0.10;1.00;;;;;;4972151;28;20072;-79
2023/01/13 04:17:49;;;;;;;132.50;76.57;;;0.10;1.00;;;;;;4972295;28;20046;-78
2023/01/13 04:20:18;;;;;;;129.50;74.68;;;0.00;1.00;;;;;;4973334;28;20039;-75
2023/01/13 04:22:46;;;;;;;123.55;70.53;;;0.00;1.00;;;;;;4975282;28;20053;-78
2023/01/13 04:25:13;;;;;;;123.80;77.68;;;0.10;40.20;;;;;;4955770;28;20456;-78
2023/01/13 04:27:41;;;;;;;144.27;82.78;;;0.10;83.70;;;;;;4970272;28;20407;-78
2023/01/13 04:30:10;;;;;;;143.73;84.63;;;0.00;1.00;;;;;;4972576;28;20043;-76
2023/01/13 04:32:37;;;;;;;150.18;90.45;;;-0.10;1.00;;;;;;4972561;28;20047;-76
2023/01/13 04:35:07;;;;;;;151.45;90.28;;;-0.20;1.00;;;;;;4974335;28;20125;-76
2023/01/13 04:37:36;;;;;;;156.23;89.50;;;-0.20;1.00;;;;;;4973329;28;20043;-74
2023/01/13 04:40:04;;;;;;;160.23;94.30;;;-0.20;1.00;;;;;;4974267;28;20043;-74
2023/01/13 04:42:31;;;;;;;139.38;82.15;;;-0.20;1.00;;;;;;4963859;28;20069;-74
2023/01/13 04:44:58;;;;;;;142.70;85.63;;;-0.20;1.00;;;;;;4966816;28;20046;-75
2023/01/13 04:47:26;;;;;;;158.23;93.07;;;-0.10;99.90;;;;;;4981919;28;20054;-77
2023/01/13 04:49:53;;;;;;;146.48;87.40;;;-0.10;1.00;;;;;;4971261;28;20094;-78
2023/01/13 04:52:22;;;;;;;142.98;85.38;;;-0.20;1.00;;;;;;4973740;28;20438;-77
2023/01/13 04:54:51;;;;;;;148.48;84.82;;;-0.20;1.00;;;;;;4973658;28;20034;-78
2023/01/13 04:57:18;;;;;;;126.93;75.30;;;-0.20;1.00;;;;;;4974368;28;20049;-77
2023/01/13 04:59:46;;;;;;;149.63;87.30;;;-0.10;42.50;;;;;;4983432;28;20623;-74
2023/01/13 05:02:18;;;;;;;196.63;104.97;;;-0.10;1.00;;;;;;4975519;28;20046;-75
2023/01/13 05:04:46;;;;;;;186.68;98.65;;;-0.10;1.00;;;;;;4958709;28;20435;-77
2023/01/13 05:07:13;;;;;;;157.45;89.32;;;-0.10;10.20;;;;;;4972921;28;20043;-75
2023/01/13 05:09:41;;;;;;;140.13;85.28;;;-0.20;1.00;;;;;;4973075;28;20506;-77
2023/01/13 05:17:41;;;;;;;106.75;65.28;;;-0.20;1.00;;;;;;4975642;28;20067;-74
2023/01/13 05:20:10;;;;;;;105.25;62.42;;;-0.20;99.90;;;;;;4992181;28;20039;-75
2023/01/13 05:25:23;;;;;;;102.13;62.03;;;-0.20;1.00;;;;;;4992655;28;20051;-75
2023/01/13 05:27:54;;;;;;;98.43;57.38;;;-0.30;1.00;;;;;;4984562;28;20050;-77
2023/01/13 05:30:25;;;;;;;103.85;62.20;;;-0.40;99.90;;;;;;4974267;28;20051;-78
2023/01/13 05:32:52;;;;;;;105.18;62.92;;;-0.30;1.00;;;;;;4973448;28;20065;-78
2023/01/13 05:35:20;;;;;;;104.35;62.47;;;-0.30;1.00;;;;;;4974171;28;20126;-77
2023/01/13 05:37:48;;;;;;;104.55;62.33;;;-0.30;1.00;;;;;;4972885;28;20049;-76
2023/01/13 05:43:20;;;;;;;185.43;98.55;;;-0.30;1.00;;;;;;4973264;28;20105;-78
2023/01/13 05:45:49;;;;;;;171.48;95.20;;;-0.30;1.00;;;;;;4972810;28;20043;-77
2023/01/13 05:48:17;;;;;;;181.13;97.05;;;-0.30;1.00;;;;;;4971712;28;20055;-77
2023/01/13 05:50:45;;;;;;;207.07;107.38;;;-0.20;1.00;;;;;;4972816;28;20058;-77
2023/01/13 05:53:13;;;;;;;158.85;86.00;;;-0.30;99.90;;;;;;4973170;28;20050;-77
2023/01/13 05:55:42;;;;;;;166.32;88.35;;;-0.30;1.00;;;;;;4959204;28;20050;-77
2023/01/13 05:58:12;;;;;;;151.10;82.30;;;-0.30;99.90;;;;;;4975586;28;20046;-77
2023/01/13 06:00:39;;;;;;;146.32;81.70;;;-0.20;1.00;;;;;;4972230;28;20035;-76
2023/01/13 06:03:07;;;;;;;217.68;111.07;;;-0.20;1.00;;;;;;4975595;28;20051;-78
2023/01/13 06:05:35;;;;;;;237.02;118.65;;;-0.20;99.90;;;;;;4974386;28;20049;-78
2023/01/13 06:08:04;;;;;;;212.48;107.18;;;-0.20;1.00;;;;;;4975120;28;20053;-78
2023/01/13 06:10:33;;;;;;;209.32;100.75;;;-0.20;1.00;;;;;;4975005;28;20051;-75
2023/01/13 06:13:00;;;;;;;197.90;97.60;;;-0.20;99.90;;;;;;4974927;28;20049;-77
2023/01/13 06:15:29;;;;;;;168.30;84.68;;;-0.20;99.90;;;;;;4975758;28;20069;-76
2023/01/13 06:17:57;;;;;;;133.43;70.72;;;-0.20;1.00;;;;;;4974191;28;20050;-79
2023/01/13 06:20:25;;;;;;;132.18;71.38;;;-0.30;1.00;;;;;;4974762;28;20050;-79
2023/01/13 06:22:53;;;;;;;131.95;71.40;;;-0.40;1.00;;;;;;4974337;28;20050;-78
2023/01/13 06:25:35;;;;;;;132.95;69.75;;;-0.40;1.00;;;;;;4973022;28;20047;-76
2023/01/13 06:28:04;;;;;;;133.48;73.28;;;-0.40;99.90;;;;;;4977823;28;20071;-78
2023/01/13 06:30:38;;;;;;;144.63;75.85;;;-0.40;1.00;;;;;;4987021;28;20059;-78
2023/01/13 06:33:09;;;;;;;138.65;76.78;;;-0.30;99.90;;;;;;4988917;28;20126;-76
2023/01/13 06:35:39;;;;;;;159.57;84.43;;;-0.30;1.00;;;;;;4965707;28;20047;-75
2023/01/13 06:38:11;;;;;;;168.68;89.10;;;-0.20;1.00;;;;;;4977000;28;20097;-76
2023/01/13 06:40:38;;;;;;;183.02;95.07;;;-0.10;99.90;;;;;;4977620;28;20118;-75
2023/01/13 06:43:14;;;;;;;173.70;88.20;;;0.00;24.70;;;;;;4976250;28;20141;-76
2023/01/13 06:45:43;;;;;;;;;;;0.20;45.90;;;;;;4976257;28;20455;-78
2023/01/13 06:48:10;;;;;;;223.85;127.15;;;0.20;99.90;;;;;;4973418;28;19926;-77
2023/01/13 06:50:38;;;;;;;211.45;115.22;;;0.20;99.90;;;;;;4974286;28;20101;-76
2023/01/13 06:53:05;;;;;;;200.88;118.50;;;0.20;1.00;;;;;;4974491;28;20070;-79
2023/01/13 06:55:33;;;;;;;214.68;119.53;;;0.10;1.00;;;;;;4955230;28;20051;-78
2023/01/13 06:58:00;;;;;;;218.43;118.07;;;0.10;1.00;;;;;;4971853;28;20102;-77
2023/01/13 07:00:28;;;;;;;216.77;119.22;;;0.10;99.90;;;;;;4972655;28;20031;-78
2023/01/13 07:03:06;;;;;;;202.70;117.60;;;0.10;99.90;;;;;;4973599;28;20050;-77
2023/01/13 07:05:33;;;;;;;216.50;122.75;;;0.20;1.00;;;;;;4986259;28;20046;-74
2023/01/13 07:08:01;;;;;;;252.27;139.80;;;0.30;99.90;;;;;;4980982;28;20915;-79
2023/01/13 07:10:29;;;;;;;264.92;142.10;;;0.40;1.00;;;;;;4973105;28;20487;-79
2023/01/13 07:15:41;;;;;;;349.05;184.88;;;0.60;99.90;;;;;;4973624;28;20043;-78
2023/01/13 07:18:10;;;;;;;306.77;156.63;;;0.70;1.00;;;;;;4973788;28;20640;-79
2023/01/13 07:20:37;;;;;;;283.35;148.50;;;0.80;99.90;;;;;;4973712;28;20046;-75
2023/01/13 07:23:05;;;;;;;302.63;165.65;;;0.80;1.00;;;;;;4973659;28;20039;-76
2023/01/13 07:25:33;;;;;;;274.88;139.07;;;0.80;1.00;;;;;;4974303;28;20146;-78
2023/01/13 07:28:00;;;;;;;245.10;124.63;;;0.90;1.00;;;;;;4973250;28;20503;-76
2023/01/13 07:30:28;;;;;;;194.20;103.88;;;1.00;99.90;;;;;;4973319;28;20070;-77
2023/01/13 07:32:56;;;;;;;183.38;98.68;;;1.30;50.20;;;;;;4973286;28;20532;-78
2023/01/13 07:35:25;;;;;;;191.40;101.80;;;1.40;1.00;;;;;;4973299;28;20398;-76
2023/01/13 07:37:52;;;;;;;164.63;88.38;;;1.50;1.00;;;;;;4973533;28;20039;-77
2023/01/13 07:40:20;;;;;;;160.75;83.32;;;1.60;1.00;;;;;;4973274;28;20090;-75
2023/01/13 07:45:33;;;;;;;208.13;108.68;;;1.60;1.00;;;;;;4971086;28;20466;-78
2023/01/13 07:48:00;;;;;;;208.25;109.32;;;1.60;1.00;;;;;;4972696;28;20043;-78
2023/01/13 07:50:29;;;;;;;226.20;120.28;;;1.70;1.00;;;;;;4972886;28;20050;-78
2023/01/13 07:52:58;;;;;;;190.32;101.80;;;1.70;1.00;;;;;;4978436;28;20490;-73
2023/01/13 07:55:25;;;;;;;186.20;99.78;;;1.60;1.00;;;;;;4990961;28;20098;-75
2023/01/13 07:57:53;;;;;;;198.95;107.15;;;1.50;1.00;;;;;;4962809;28;20125;-75
2023/01/13 08:00:23;;;;;;;210.63;114.40;;;1.60;1.00;;;;;;4984374;28;20082;-76
2023/01/13 08:02:50;;;;;;;231.70;122.82;;;1.60;1.00;;;;;;4961126;28;20078;-76
2023/01/13 08:05:18;;;;;;;213.30;118.78;;;1.60;1.00;;;;;;4978688;28;20027;-76
2023/01/13 08:07:46;;;;;;;216.20;119.38;;;1.80;99.90;;;;;;4983589;28;20499;-76
2023/01/13 08:10:14;;;;;;;198.35;109.63;;;2.00;1.00;;;;;;4973999;28;20479;-76
2023/01/13 08:15:28;;;;;;;171.82;96.70;;;2.80;1.00;;;;;;4971890;28;20038;-78
2023/01/13 08:17:56;;;;;;;198.07;107.78;;;3.10;99.90;;;;;;4974087;28;20072;-73
2023/01/13 08:20:23;;;;;;;181.98;105.05;;;3.10;1.00;;;;;;4977503;28;20038;-76
2023/01/13 08:22:55;;;;;;;174.27;101.03;;;3.30;1.00;;;;;;4974010;28;20514;-78
2023/01/13 08:25:23;;;;;;;165.07;96.75;;;3.60;1.00;;;;;;4971865;28;20098;-78
2023/01/13 08:27:50;;;;;;;164.50;94.32;;;3.80;1.00;;;;;;4972007;28;20042;-77
2023/01/13 08:30:18;;;;;;;162.98;94.68;;;4.00;99.90;;;;;;4971928;28;20039;-76
2023/01/13 08:32:46;;;;;;;164.10;92.65;;;4.20;99.90;;;;;;4972118;28;20041;-78
2023/01/13 08:35:14;;;;;;;160.50;90.18;;;4.30;99.90;;;;;;4972133;28;20047;-76
2023/01/13 08:37:42;;;;;;;152.18;90.80;;;4.20;99.90;;;;;;4971518;28;20051;-75
2023/01/13 08:40:12;;;;;;;155.13;90.78;;;4.10;99.90;;;;;;4970850;28;20073;-77
2023/01/13 08:42:40;;;;;;;149.57;87.32;;;4.10;99.90;;;;;;4973521;28;20047;-77
2023/01/13 08:45:08;;;;;;;147.85;89.90;;;4.10;99.90;;;;;;4973345;28;20047;-76
2023/01/13 08:47:36;;;;;;;147.10;88.43;;;4.00;99.90;;;;;;4972776;28;20039;-77
2023/01/13 08:50:05;;;;;;;153.02;87.63;;;4.20;99.90;;;;;;4970619;28;20079;-77
2023/01/13 08:52:32;;;;;;;141.45;84.47;;;4.20;99.90;;;;;;4971226;28;20046;-78
2023/01/13 08:55:00;;;;;;;139.57;83.50;;;4.30;1.00;;;;;;4971356;28;20039;-78
2023/01/13 08:57:28;;;;;;;147.70;91.15;;;4.50;1.00;;;;;;4971497;28;20440;-79
2023/01/13 08:59:56;;;;;;;152.70;93.82;;;4.70;99.90;;;;;;4969043;28;20537;-77
2023/01/13 09:02:25;;;;;;;150.63;97.47;;;4.70;99.90;;;;;;4970919;28;20051;-76
2023/01/13 09:04:53;;;;;;;197.30;117.15;;;4.80;99.90;;;;;;4970542;28;20039;-76
2023/01/13 09:07:21;;;;;;;231.98;136.40;;;5.00;99.90;;;;;;4971285;28;20042;-78
2023/01/13 09:09:50;;;;;;;265.02;150.93;;;5.20;99.90;;;;;;4969661;28;20127;-77
2023/01/13 09:15:05;;;;;;;261.83;149.18;;;5.40;99.90;;;;;;4973183;28;20042;-75
2023/01/13 09:17:33;;;;;;;264.73;156.95;;;5.30;99.90;;;;;;4978587;28;20054;-78
2023/01/13 09:20:00;;;;;;;263.40;151.80;;;5.30;99.90;;;;;;4978558;28;20051;-74
2023/01/13 09:22:28;;;;;;;256.27;145.68;;;5.30;99.90;;;;;;4980532;28;20043;-78
2023/01/13 09:24:56;;;;;;;255.65;142.25;;;5.40;99.90;;;;;;4970859;28;20050;-76
2023/01/13 09:27:23;;;;;;;242.95;139.45;;;5.50;99.90;;;;;;4952955;28;20035;-76
2023/01/13 09:29:51;;;;;;;240.95;138.10;;;5.70;99.90;;;;;;4970310;28;20038;-76
2023/01/13 09:32:19;;;;;;;225.25;134.10;;;5.80;99.90;;;;;;4969690;28;20035;-78
2023/01/13 09:35:01;;;;;;;227.65;133.63;;;6.00;99.90;;;;;;4971426;28;20045;-76
2023/01/13 09:37:32;;;;;;;224.90;132.68;;;6.10;32.80;;;;;;4970857;28;20118;-78
2023/01/13 09:40:00;;;;;;;222.57;129.00;;;6.20;17.50;;;;;;4970949;28;20034;-78
2023/01/13 09:45:22;;;;;;;211.80;128.93;;;6.40;11.10;;;;;;4972423;28;20039;-77
2023/01/13 09:47:57;;;;;;;203.55;123.93;;;6.40;1.00;;;;;;4971634;28;20085;-77
2023/01/13 09:50:34;;;;;;;208.43;124.85;;;6.40;1.00;;;;;;4979828;28;20062;-78
2023/01/13 09:53:01;;;;;;;;;;;6.60;99.90;;;;;;4988109;28;20043;-76
2023/01/13 09:55:33;;;;;;;207.75;124.40;;;6.70;1.00;;;;;;4978413;28;19961;-77
2023/01/13 09:58:02;;;;;;;202.00;121.38;;;6.80;1.00;;;;;;4970512;28;20054;-75
2023/01/13 10:00:39;;;;;;;202.52;122.13;;;6.80;1.00;;;;;;4971017;28;20386;-78
2023/01/13 10:03:21;;;;;;;202.50;122.50;;;6.90;1.00;;;;;;4969447;28;20061;-78
2023/01/13 10:05:56;;;;;;;202.88;123.25;;;7.00;1.00;;;;;;4970364;28;20045;-79
2023/01/13 10:08:26;;;;;;;199.15;118.70;;;7.10;1.00;;;;;;4969457;28;20066;-78
2023/01/13 10:10:57;;;;;;;192.43;115.55;;;7.30;1.00;;;;;;4970379;28;20049;-79
2023/01/13 10:13:25;;;;;;;194.52;117.55;;;7.20;1.00;;;;;;4970173;28;20049;-77
2023/01/13 10:15:59;;;;;;;183.88;111.72;;;7.20;1.00;;;;;;4968764;28;20057;-78
2023/01/13 10:18:39;;;;;;;185.10;113.50;;;6.90;1.00;;;;;;4969633;28;20070;-79
2023/01/13 10:21:22;;;;;;;208.25;122.18;;;6.90;1.00;;;;;;4968537;28;20054;-78
2023/01/13 10:23:58;;;;;;;232.40;130.05;;;7.00;1.00;;;;;;4969360;28;20062;-78
2023/01/13 10:26:39;;;;;;;209.93;123.35;;;6.90;50.20;;;;;;4986802;23;20047;-74
2023/01/13 10:29:20;;;;;;;218.05;125.55;;;6.70;25.10;;;;;;4954736;28;20047;-73
2023/01/13 10:31:48;;;;;;;211.38;123.28;;;6.70;99.90;;;;;;4969228;28;20118;-72
2023/01/13 10:34:19;;;;;;;190.35;115.45;;;6.90;99.90;;;;;;4975741;28;20047;-72
2023/01/13 10:37:02;;;;;;;195.38;116.60;;;7.10;1.00;;;;;;4969734;28;20038;-72
2023/01/13 10:39:39;;;;;;;198.32;116.60;;;7.20;1.00;;;;;;4968294;28;20038;-73
2023/01/13 10:42:13;;;;;;;184.85;108.65;;;7.30;1.00;;;;;;4972236;28;20042;-73
2023/01/13 10:44:50;;;;;;;182.63;106.35;;;7.40;1.00;;;;;;4970776;28;20136;-73
2023/01/13 10:47:26;;;;;;;180.10;109.63;;;7.30;1.00;;;;;;4973563;28;20045;-72
2023/01/13 10:50:22;;;;;;;171.00;106.10;;;7.50;1.00;;;;;;4973292;28;20288;-74
2023/01/13 10:52:59;;;;;;;165.52;105.25;;;7.60;1.00;;;;;;4963565;28;20094;-72
2023/01/13 10:55:29;;;;;;;164.02;98.65;;;7.60;1.00;;;;;;4956038;28;20046;-73
2023/01/13 10:57:57;;;;;;;119.85;71.80;;;7.60;1.00;;;;;;4972803;28;20130;-75
2023/01/13 11:00:30;;;;;;;115.20;68.97;;;7.60;1.00;;;;;;4973384;28;20046;-72
2023/01/13 11:03:16;;;;;;;117.95;73.88;;;7.70;1.00;;;;;;4976111;28;20035;-74
2023/01/13 11:05:56;;;;;;;129.80;82.43;;;7.90;1.00;;;;;;4975163;28;20378;-73
2023/01/13 11:08:26;;;;;;;131.43;81.18;;;8.10;1.00;;;;;;4974288;28;20054;-73
2023/01/13 11:10:55;;;;;;;133.65;82.57;;;8.10;1.00;;;;;;4974377;28;20053;-73
2023/01/13 11:13:30;;;;;;;131.82;81.72;;;8.20;1.00;;;;;;4974063;28;20134;-72
2023/01/13 11:16:03;;;;;;;136.50;84.03;;;8.40;1.00;;;;;;4973360;28;20058;-73
2023/01/13 11:18:42;;;;;;;133.63;83.88;;;8.40;1.00;;;;;;4973542;28;20035;-73
2023/01/13 11:21:21;;;;;;;139.88;88.53;;;8.40;1.00;;;;;;4973366;28;20093;-72
2023/01/13 11:23:56;;;;;;;153.05;96.05;;;8.70;1.00;;;;;;4973362;28;20053;-73
2023/01/13 11:26:40;;;;;;;147.57;94.43;;;8.80;1.00;;;;;;4973262;28;20051;-73
2023/01/13 11:29:15;;;;;;;147.65;92.90;;;8.90;1.00;;;;;;4972601;28;20670;-73
2023/01/13 11:31:47;;;;;;;134.23;91.70;;;9.00;1.00;;;;;;4956885;28;20135;-73
2023/01/13 11:34:25;;;;;;;141.65;89.05;;;8.90;1.00;;;;;;4972887;28;20070;-73
2023/01/13 11:36:58;;;;;;;134.20;85.97;;;8.90;1.00;;;;;;4971938;28;20050;-73
2023/01/13 11:39:30;;;;;;;127.65;80.80;;;9.00;1.00;;;;;;4971115;28;20043;-73
2023/01/13 11:44:51;;;;;;;129.52;80.90;;;9.10;1.00;;;;;;4972389;28;20511;-73
2023/01/13 11:47:23;;;;;;;126.25;79.22;;;9.00;1.00;;;;;;4971465;28;20051;-74
2023/01/13 11:49:51;;;;;;;128.52;79.40;;;9.10;1.00;;;;;;4971338;28;20122;-73
2023/01/13 11:52:24;;;;;;;119.63;76.63;;;9.10;1.00;;;;;;4972763;28;20034;-73
2023/01/13 11:55:10;;;;;;;106.53;71.45;;;9.20;1.00;;;;;;4972447;28;20070;-72
2023/01/13 11:58:00;;;;;;;107.50;67.82;;;9.40;1.00;;;;;;4971851;28;20047;-72
2023/01/13 12:00:40;;;;;;;105.35;61.50;;;9.70;1.00;;;;;;4954120;28;20587;-72
2023/01/13 12:03:26;;;;;;;92.72;59.95;;;10.00;1.00;;;;;;4946079;28;20145;-72
2023/01/13 12:06:11;;;;;;;103.05;64.22;;;10.30;1.00;;;;;;4955194;28;20043;-73
2023/01/13 12:09:10;;;;;;;96.13;63.78;;;10.40;1.00;;;;;;4973349;28;20518;-74
2023/01/13 12:14:41;;;;;;;91.00;58.70;;;10.30;1.00;;;;;;4971063;28;20030;-74
2023/01/13 12:17:20;;;;;;;91.97;59.38;;;10.40;1.00;;;;;;4970602;28;20066;-73
2023/01/13 12:19:50;;;;;;;93.88;59.67;;;10.40;1.00;;;;;;4969736;28;20058;-73
2023/01/13 12:22:23;;;;;;;81.93;53.50;;;10.30;1.00;;;;;;4971568;28;20126;-73
2023/01/13 12:24:58;;;;;;;84.68;53.65;;;10.30;1.00;;;;;;4971723;28;20122;-72
2023/01/13 12:27:38;;;;;;;81.10;50.78;;;10.30;1.00;;;;;;4970401;28;20127;-72
2023/01/13 12:30:18;;;;;;;80.60;49.83;;;10.20;1.00;;;;;;4972012;28;20614;-74
2023/01/13 12:32:46;;;;;;;76.97;47.95;;;10.40;1.00;;;;;;4970698;28;20042;-73
2023/01/13 12:35:32;;;;;;;77.40;47.88;;;10.40;1.00;;;;;;4970847;28;20043;-74
2023/01/13 12:38:08;;;;;;;77.28;46.22;;;10.50;1.00;;;;;;4969961;28;20599;-72
2023/01/13 12:40:47;;;;;;;74.45;46.20;;;10.50;1.00;;;;;;4969384;28;20047;-73
2023/01/13 12:46:34;;;;;;;76.85;46.17;;;10.40;1.00;;;;;;4970984;28;20408;-72
2023/01/13 12:49:06;;;;;;;71.03;43.03;;;10.40;1.00;;;;;;4969649;28;20066;-72
2023/01/13 12:51:36;;;;;;;79.07;47.00;;;10.60;1.00;;;;;;4972680;28;20451;-73
2023/01/13 12:54:24;;;;;;;74.68;48.33;;;10.50;1.00;;;;;;4971284;28;20519;-72
2023/01/13 12:56:53;;;;;;;77.30;48.85;;;10.50;1.00;;;;;;4971358;28;20057;-73
2023/01/13 12:59:34;;;;;;;72.45;45.33;;;10.60;1.00;;;;;;4970513;28;20055;-72
2023/01/13 13:02:31;;;;;;;69.72;44.83;;;10.70;1.00;;;;;;4974772;28;20047;-73
2023/01/13 13:05:04;;;;;;;62.00;39.30;;;10.70;1.00;;;;;;4979044;28;20042;-72
2023/01/13 13:07:41;;;;;;;53.85;34.70;;;10.70;1.00;;;;;;4959965;28;20081;-72
2023/01/13 13:10:18;;;;;;;51.28;32.47;;;10.60;1.00;;;;;;4958633;28;20055;-73
2023/01/13 13:15:44;;;;;;;52.38;32.67;;;10.60;1.00;;;;;;4972210;28;20494;-73
2023/01/13 13:18:27;;;;;;;49.10;32.28;;;10.70;1.00;;;;;;4970216;28;20042;-74
2023/01/13 13:21:04;;;;;;;47.45;32.67;;;10.70;1.00;;;;;;4972820;28;20039;-73
2023/01/13 13:23:43;;;;;;;48.90;32.83;;;10.90;1.00;;;;;;4972063;28;20049;-73
2023/01/13 13:26:23;;;;;;;54.65;34.95;;;10.90;1.00;;;;;;4954589;28;20054;-72
2023/01/13 13:29:08;;;;;;;56.60;33.88;;;11.00;1.00;;;;;;4969306;28;20479;-72
2023/01/13 13:31:55;;;;;;;55.80;35.63;;;11.00;1.00;;;;;;4971372;28;20935;-72
2023/01/13 13:34:32;;;;;;;54.47;35.45;;;11.20;1.00;;;;;;4970113;28;20043;-73
2023/01/13 13:37:26;;;;;;;59.00;36.70;;;11.40;1.00;;;;;;4953289;28;20051;-72
2023/01/13 13:48:23;;;;;;;46.00;29.83;;;11.30;1.00;;;;;;4953197;28;20162;-72